ADDS METAR Data INFO
IDs: Format: Raw Decoded Include TAF

Data at: 1305 UTC 11 Dec 2017

KCEW 111253Z AUTO 00000KT 10SM CLR M03/M04 A3031 RMK AO2 SLP265 T10331044
KCEW 111153Z AUTO 00000KT 10SM CLR M03/M04 A3030 RMK AO2 SLP260 T10331044 11017 21033 56003
KCEW 111053Z AUTO 00000KT 10SM CLR M03/M04 A3030 RMK AO2 SLP260 T10281044
KCEW 110953Z AUTO 00000KT 10SM CLR M03/M04 A3030 RMK AO2 SLP262 T10281039
KCEW 110853Z AUTO 00000KT 10SM CLR M02/M03 A3030 RMK AO2 SLP262 T10221033 56006
KCEW 110753Z AUTO 00000KT 10SM CLR M02/M04 A3031 RMK AO2 SLP263 T10221039
KCEW 110653Z AUTO 00000KT 10SM CLR M02/M03 A3031 RMK AO2 SLP266 T10221033
KCEW 110553Z AUTO 00000KT 10SM CLR M02/M03 A3032 RMK AO2 SLP269 T10171033 10039 21022 401281039 58003
KCEW 110453Z AUTO 00000KT 9SM CLR M02/M03 A3035 RMK AO2 SLP279 T10171028
KCEW 110353Z AUTO 00000KT 9SM CLR M01/M02 A3036 RMK AO2 SLP281 T10111022
KCEW 110253Z AUTO 00000KT 9SM CLR M01/M02 A3033 RMK AO2 SLP273 T10061017 50001
KCEW 110153Z AUTO 00000KT 10SM CLR 01/M01 A3034 RMK AO2 SLP277 T00061006
KCEW 110053Z AUTO 00000KT 10SM CLR 02/01 A3034 RMK AO2 SLP275 T00220006
KCEW 102353Z AUTO 00000KT 10SM CLR 04/01 A3033 RMK AO2 SLP272 T00390006 10128 20033 53006
KCEW 102253Z AUTO 00000KT 10SM CLR 07/00 A3032 RMK AO2 SLP269 T00720000
KCEW 102153Z AUTO 30005KT 10SM CLR 12/M04 A3032 RMK AO2 SLP268 T01171039
KCEW 102053Z AUTO 32008KT 10SM CLR 12/M06 A3032 RMK AO2 SLP265 T01221061 56018
KCEW 101953Z AUTO 30005KT 10SM CLR 12/M05 A3032 RMK AO2 SLP268 T01171050
KCEW 101853Z AUTO VRB04KT 10SM CLR 11/M05 A3034 RMK AO2 SLP274 T01111050
KCEW 101753Z AUTO 35006KT 10SM CLR 10/M06 A3037 RMK AO2 SLP284 T01001056 10106 21039 58014
KCEW 101653Z AUTO VRB04KT 10SM CLR 08/M03 A3040 RMK AO2 SLP296 T00831033
KCEW 101553Z AUTO 04005KT 10SM CLR 08/M03 A3041 RMK AO2 SLP298 T00781033
KCEW 101453Z AUTO 00000KT 10SM CLR 04/M02 A3041 RMK AO2 SLP299 T00441017 51018
KCEW 101353Z AUTO 00000KT 10SM CLR 00/M01 A3039 RMK AO2 SLP293 T00001011
KCEW 101253Z AUTO 00000KT 10SM CLR M04/M05 A3038 RMK AO2 SLP287 T10391050
KCEW 101153Z AUTO 35004KT 10SM CLR M01/M03 A3036 RMK AO2 SLP281 T10111028 10011 21039 53011
KCEW 101053Z AUTO 36004KT 10SM CLR M02/M04 A3034 RMK AO2 SLP274 T10221039
KCEW 100953Z AUTO 00000KT 10SM CLR M03/M04 A3034 RMK AO2 SLP274 T10331044
KCEW 100853Z AUTO 00000KT 10SM CLR M03/M04 A3032 RMK AO2 SLP270 T10281044 51014
KCEW 100753Z AUTO 00000KT 10SM CLR M03/M04 A3032 RMK AO2 SLP267 T10281039
KCEW 100653Z AUTO 00000KT 10SM CLR M02/M03 A3030 RMK AO2 SLP263 T10221033
KCEW 100553Z AUTO 28003KT 10SM CLR 01/M02 A3028 RMK AO2 SLP256 T00111022 10011 21017 400831017 51010
KCEW 100453Z AUTO 29003KT 10SM CLR M01/M03 A3027 RMK AO2 SLP251 T10061028
KCEW 100353Z AUTO 27003KT 10SM CLR M01/M02 A3027 RMK AO2 SLP251 T10061022
KCEW 100253Z AUTO 27003KT 10SM CLR M01/M03 A3025 RMK AO2 SLP246 T10111028 53026
KCEW 100153Z AUTO 00000KT 10SM CLR M01/M02 A3022 RMK AO2 SLP236 T10111022